createdAt,value
2023-01-15T00:00:12.339Z,18.65
2023-01-15T00:02:52.254Z,18.35
2023-01-15T00:05:32.407Z,17.65
2023-01-15T00:08:12.235Z,16.65
2023-01-15T00:10:52.326Z,16.58
2023-01-15T00:13:32.207Z,15.93
2023-01-15T00:16:26.481Z,15.70
2023-01-15T00:19:08.219Z,15.88
2023-01-15T00:21:48.348Z,16.70
2023-01-15T00:24:47.225Z,19.30
2023-01-15T00:27:39.567Z,18.00
2023-01-15T00:30:21.217Z,18.58
2023-01-15T00:33:01.362Z,16.13
2023-01-15T00:35:41.223Z,16.58
2023-01-15T00:38:28.212Z,15.13
2023-01-15T00:41:15.235Z,15.27
2023-01-15T00:43:55.217Z,16.10
2023-01-15T00:46:49.302Z,16.38
2023-01-15T00:49:36.213Z,16.83
2023-01-15T00:52:09.358Z,16.88
2023-01-15T00:54:56.219Z,18.15
2023-01-15T00:57:31.693Z,17.67
2023-01-15T01:00:19.240Z,16.85
2023-01-15T01:02:52.323Z,16.60
2023-01-15T01:05:39.238Z,17.08
2023-01-15T01:08:12.354Z,16.15
2023-01-15T01:11:08.227Z,17.45
2023-01-15T01:13:42.366Z,15.57
2023-01-15T01:16:33.318Z,15.75
2023-01-15T01:19:15.263Z,15.70
2023-01-15T01:22:02.241Z,16.65
2023-01-15T01:24:37.952Z,20.63
2023-01-15T01:27:25.233Z,17.40
2023-01-15T01:29:58.337Z,16.17
2023-01-15T01:32:45.261Z,15.40
2023-01-15T01:35:26.249Z,15.85
2023-01-15T01:38:20.232Z,16.50
2023-01-15T01:41:07.252Z,16.65
2023-01-15T01:44:16.241Z,14.93
2023-01-15T01:47:10.243Z,15.35
2023-01-15T01:50:04.271Z,15.93
2023-01-15T01:52:43.452Z,17.63
2023-01-15T01:55:33.279Z,17.67
2023-01-15T01:58:11.394Z,16.65
2023-01-15T02:00:59.404Z,17.77
2023-01-15T02:03:46.247Z,18.13
2023-01-15T02:06:42.259Z,16.83
2023-01-15T02:09:29.278Z,18.33
2023-01-15T02:12:10.347Z,16.45
2023-01-15T02:15:13.243Z,19.05
2023-01-15T02:18:11.391Z,15.50
2023-01-15T02:21:05.254Z,18.33
2023-01-15T02:24:03.467Z,18.38
2023-01-15T02:27:11.260Z,16.17
2023-01-15T02:30:12.261Z,17.10
2023-01-15T02:33:12.252Z,16.65
2023-01-15T02:36:07.260Z,15.85
2023-01-15T02:38:46.371Z,16.05
2023-01-15T02:41:40.254Z,17.90
2023-01-15T02:44:15.413Z,18.38
2023-01-15T02:47:03.279Z,16.63
2023-01-15T02:49:43.267Z,17.55
2023-01-15T02:52:46.344Z,19.95
2023-01-15T02:55:41.256Z,16.73
2023-01-15T02:58:19.410Z,16.35
2023-01-15T03:01:11.354Z,17.08
2023-01-15T03:03:48.427Z,15.40
2023-01-15T03:06:50.256Z,18.05
2023-01-15T03:09:24.360Z,16.20
2023-01-15T03:12:24.266Z,18.27
2023-01-15T03:15:11.301Z,16.83
2023-01-15T03:18:05.296Z,18.80
2023-01-15T03:20:47.665Z,18.42
2023-01-15T03:23:43.276Z,18.98
2023-01-15T03:26:30.280Z,17.70
2023-01-15T03:29:12.265Z,18.63
2023-01-15T03:32:06.289Z,20.13
2023-01-15T03:35:10.287Z,19.27
2023-01-15T03:38:04.291Z,18.10
2023-01-15T03:41:47.277Z,19.20
2023-01-15T03:44:53.301Z,19.58
2023-01-15T03:47:59.271Z,18.27
2023-01-15T03:50:44.296Z,18.35
2023-01-15T03:53:44.316Z,17.60
2023-01-15T03:56:57.307Z,18.30
2023-01-15T04:00:09.276Z,18.33
2023-01-15T04:03:05.296Z,18.98
2023-01-15T04:06:00.300Z,17.98
2023-01-15T04:08:57.321Z,19.45
2023-01-15T04:11:44.294Z,18.98
2023-01-15T04:14:28.293Z,18.83
2023-01-15T04:17:15.294Z,20.55
2023-01-15T04:19:55.287Z,19.35
2023-01-15T04:22:49.324Z,18.95
2023-01-15T04:25:36.303Z,20.25
2023-01-15T04:28:09.403Z,17.52
2023-01-15T04:30:56.312Z,18.63
2023-01-15T04:33:29.563Z,18.58
2023-01-15T04:36:17.331Z,18.38
2023-01-15T04:38:50.397Z,17.00
2023-01-15T04:41:56.307Z,19.55
2023-01-15T04:44:29.443Z,19.20
2023-01-15T04:47:16.294Z,17.83
2023-01-15T04:49:56.304Z,17.80
2023-01-15T04:52:44.304Z,18.05
2023-01-15T04:55:24.325Z,18.02
2023-01-15T04:58:18.307Z,17.25
2023-01-15T05:01:07.384Z,18.38
2023-01-15T05:03:47.325Z,17.20
2023-01-15T05:06:35.298Z,17.92
2023-01-15T05:09:09.510Z,17.98
2023-01-15T05:11:56.330Z,19.30
2023-01-15T05:14:29.454Z,17.30
2023-01-15T05:17:16.315Z,16.23
2023-01-15T05:19:49.409Z,16.35
2023-01-15T05:22:36.327Z,17.90
2023-01-15T05:25:10.834Z,16.35
2023-01-15T05:27:57.295Z,17.05
2023-01-15T05:30:30.430Z,20.02
2023-01-15T05:33:17.338Z,17.23
2023-01-15T05:35:57.336Z,18.50
2023-01-15T05:38:51.323Z,18.88
2023-01-15T05:41:56.335Z,20.42
2023-01-15T05:44:34.416Z,17.85
2023-01-15T05:47:23.337Z,17.40
2023-01-15T05:50:03.335Z,17.95
2023-01-15T05:52:57.344Z,18.77
2023-01-15T05:55:44.351Z,16.95
2023-01-15T05:58:17.429Z,17.75
2023-01-15T06:01:05.383Z,17.35
2023-01-15T06:03:44.616Z,17.20
2023-01-15T06:06:31.357Z,19.35
2023-01-15T06:09:05.439Z,17.45
2023-01-15T06:11:52.321Z,20.73
2023-01-15T06:14:32.353Z,16.90
2023-01-15T06:17:26.354Z,16.10
2023-01-15T06:20:13.353Z,18.48
2023-01-15T06:22:46.438Z,15.85
2023-01-15T06:25:33.363Z,36.33
2023-01-15T06:28:06.439Z,26.35
2023-01-15T06:30:53.318Z,18.75
2023-01-15T06:33:26.452Z,18.73
2023-01-15T06:36:16.328Z,19.77
2023-01-15T06:38:58.371Z,17.33
2023-01-15T06:42:10.356Z,18.58
2023-01-15T06:45:22.359Z,16.08
2023-01-15T06:48:09.349Z,14.57
2023-01-15T06:50:42.459Z,17.75
2023-01-15T06:53:29.362Z,17.15
2023-01-15T06:56:02.472Z,15.68
2023-01-15T06:58:49.356Z,17.17
2023-01-15T07:01:22.511Z,17.33
2023-01-15T07:04:09.389Z,18.15
2023-01-15T07:06:49.373Z,17.48
2023-01-15T07:09:43.372Z,17.80
2023-01-15T07:12:30.366Z,17.38
2023-01-15T07:15:03.448Z,17.60
2023-01-15T07:17:50.369Z,16.60
2023-01-15T07:20:30.371Z,18.25
2023-01-15T07:23:24.354Z,16.75
2023-01-15T07:26:18.386Z,15.30
2023-01-15T07:29:05.374Z,16.80
2023-01-15T07:31:48.369Z,16.67
2023-01-15T07:34:42.363Z,25.33
2023-01-15T07:37:29.375Z,24.02
2023-01-15T07:40:09.370Z,33.53
2023-01-15T07:43:14.386Z,25.80
2023-01-15T07:46:08.288Z,22.95
2023-01-15T07:49:14.359Z,33.00
2023-01-15T07:51:47.521Z,20.75
2023-01-15T07:54:35.361Z,27.23
2023-01-15T07:57:16.386Z,22.83
2023-01-15T08:00:03.362Z,24.83
2023-01-15T08:02:43.382Z,22.02
2023-01-15T08:05:30.392Z,48.97
2023-01-15T08:08:03.523Z,25.65
2023-01-15T08:11:09.380Z,21.70
2023-01-15T08:14:00.933Z,19.60
2023-01-15T08:16:47.403Z,19.20
2023-01-15T08:19:27.391Z,21.02
2023-01-15T08:22:16.411Z,19.27
2023-01-15T08:24:49.524Z,16.65
2023-01-15T08:27:37.378Z,18.52
2023-01-15T08:30:24.435Z,18.38
2023-01-15T08:33:18.385Z,16.70
2023-01-15T08:36:05.406Z,19.23
2023-01-15T08:38:38.496Z,19.95
2023-01-15T08:41:25.371Z,23.35
2023-01-15T08:44:00.009Z,25.48
2023-01-15T08:46:46.423Z,24.38
2023-01-15T08:49:19.531Z,21.50
2023-01-15T08:52:07.407Z,32.75
2023-01-15T08:54:42.190Z,23.58
2023-01-15T08:57:29.404Z,30.10
2023-01-15T09:00:09.405Z,25.83
2023-01-15T09:03:03.411Z,20.40
2023-01-15T09:05:50.399Z,24.55
2023-01-15T09:08:23.521Z,42.22
2023-01-15T09:11:12.394Z,29.88
2023-01-15T09:13:48.313Z,23.23
2023-01-15T09:16:39.444Z,24.15
2023-01-15T09:19:16.507Z,17.17
2023-01-15T09:22:03.442Z,15.85
2023-01-15T09:24:43.430Z,21.48
2023-01-15T09:27:37.412Z,18.40
2023-01-15T09:30:27.406Z,16.88
2023-01-15T09:33:00.496Z,17.95
2023-01-15T09:35:49.425Z,15.63
2023-01-15T09:38:25.535Z,19.95
2023-01-15T09:41:39.409Z,18.48
2023-01-15T09:45:06.457Z,18.83
2023-01-15T09:48:08.423Z,17.05
2023-01-15T09:51:08.468Z,17.42
2023-01-15T09:54:06.639Z,17.02
2023-01-15T09:56:54.421Z,19.73
2023-01-15T09:59:44.410Z,18.90
2023-01-15T10:02:52.439Z,22.48
2023-01-15T10:05:42.424Z,20.02
2023-01-15T10:08:37.426Z,18.08
2023-01-15T10:11:59.411Z,17.02
2023-01-15T10:14:59.448Z,15.88
2023-01-15T10:17:51.407Z,18.20
2023-01-15T10:20:59.440Z,18.60
2023-01-15T10:23:58.439Z,16.55
2023-01-15T10:26:52.454Z,18.95
2023-01-15T10:30:13.437Z,17.10
2023-01-15T10:33:11.445Z,17.98
2023-01-15T10:36:10.426Z,14.80
2023-01-15T10:39:14.888Z,17.60
2023-01-15T10:42:29.430Z,17.95
2023-01-15T10:45:15.445Z,17.65
2023-01-15T10:48:35.428Z,15.25
2023-01-15T10:51:29.431Z,18.13
2023-01-15T10:54:28.443Z,16.85
2023-01-15T10:57:34.473Z,15.60
2023-01-15T11:00:17.505Z,16.77
2023-01-15T11:03:08.609Z,17.67
2023-01-15T11:05:49.536Z,18.77
2023-01-15T11:12:05.467Z,16.27
2023-01-15T11:15:05.458Z,24.00
2023-01-15T11:18:11.006Z,24.73
2023-01-15T11:20:57.456Z,18.63
2023-01-15T11:23:37.444Z,21.10
2023-01-15T11:26:41.453Z,20.25
2023-01-15T11:29:38.446Z,21.48
2023-01-15T11:32:35.473Z,21.40
2023-01-15T11:35:31.453Z,20.63
2023-01-15T11:38:21.535Z,21.38
2023-01-15T11:41:08.602Z,18.88
2023-01-15T11:44:30.487Z,25.58
2023-01-15T11:47:37.470Z,21.15
2023-01-15T11:50:41.957Z,21.83
2023-01-15T11:53:35.462Z,20.35
2023-01-15T11:56:12.612Z,19.30
2023-01-15T11:59:02.469Z,15.43
2023-01-15T12:01:43.458Z,19.88
2023-01-15T12:04:53.527Z,16.45
2023-01-15T12:07:27.563Z,18.33
2023-01-15T12:10:48.479Z,17.55
2023-01-15T12:13:41.621Z,17.45
2023-01-15T12:16:43.687Z,19.42
2023-01-15T12:19:54.478Z,22.08
2023-01-15T12:22:54.487Z,17.58
2023-01-15T12:26:05.532Z,16.90
2023-01-15T12:28:43.554Z,14.85
2023-01-15T12:31:38.525Z,17.23
2023-01-15T12:34:34.480Z,18.45
2023-01-15T12:37:42.501Z,16.58
2023-01-15T12:40:50.487Z,19.50
2023-01-15T12:43:56.505Z,19.35
2023-01-15T12:46:55.542Z,20.13
2023-01-15T12:49:56.492Z,17.42
2023-01-15T12:52:35.622Z,18.58
2023-01-15T12:55:26.477Z,21.52
2023-01-15T12:58:19.537Z,19.10
2023-01-15T13:01:36.679Z,17.92
2023-01-15T13:04:39.535Z,19.40
2023-01-15T13:07:27.145Z,18.63
2023-01-15T13:10:33.536Z,16.52
2023-01-15T13:13:21.834Z,20.83
2023-01-15T13:16:17.725Z,18.73
2023-01-15T13:19:34.486Z,19.23
2023-01-15T13:22:25.535Z,18.48
2023-01-15T13:25:13.532Z,19.90
2023-01-15T13:28:21.644Z,17.80
2023-01-15T13:31:01.542Z,16.73
2023-01-15T13:33:53.533Z,20.60
2023-01-15T13:36:35.721Z,21.05
2023-01-15T13:39:26.504Z,19.88
2023-01-15T13:42:20.477Z,18.25
2023-01-15T13:45:17.538Z,17.52
2023-01-15T13:48:17.537Z,18.42
2023-01-15T13:51:16.508Z,17.27
2023-01-15T13:54:13.540Z,15.45
2023-01-15T13:57:00.502Z,16.42
2023-01-15T13:59:57.536Z,16.95
2023-01-15T14:02:52.613Z,14.63
2023-01-15T14:05:48.506Z,15.00
2023-01-15T14:08:45.536Z,19.08
2023-01-15T14:11:42.676Z,18.67
2023-01-15T14:15:08.557Z,18.55
2023-01-15T14:18:30.561Z,17.95
2023-01-15T14:21:20.661Z,15.50
2023-01-15T14:24:08.665Z,14.60
2023-01-15T14:27:17.539Z,17.77
2023-01-15T14:30:11.673Z,15.38
2023-01-15T14:33:01.575Z,15.02
2023-01-15T14:35:42.688Z,17.65
2023-01-15T14:38:33.558Z,19.00
2023-01-15T14:41:13.010Z,24.50
2023-01-15T14:44:00.576Z,23.83
2023-01-15T14:46:42.147Z,23.70
2023-01-15T14:49:37.539Z,21.88
2023-01-15T14:52:10.666Z,29.52
2023-01-15T14:54:59.553Z,24.42
2023-01-15T14:57:40.574Z,22.55
2023-01-15T15:00:30.570Z,17.55
2023-01-15T15:03:06.730Z,19.00
2023-01-15T15:05:56.569Z,19.48
2023-01-15T15:08:36.664Z,20.17
2023-01-15T15:11:53.541Z,24.70
2023-01-15T15:14:34.583Z,23.63
2023-01-15T15:17:32.561Z,25.77
2023-01-15T15:20:29.336Z,22.95
2023-01-15T15:24:14.576Z,20.10
2023-01-15T15:26:54.567Z,25.73
2023-01-15T15:29:51.207Z,23.85
2023-01-15T15:32:46.574Z,26.77
2023-01-15T15:35:40.566Z,20.13
2023-01-15T15:38:29.570Z,24.25
2023-01-15T15:41:11.675Z,21.90
2023-01-15T15:44:22.579Z,23.45
2023-01-15T15:47:54.579Z,25.35
2023-01-15T15:50:48.578Z,21.85
2023-01-15T15:53:38.575Z,20.27
2023-01-15T15:56:13.686Z,20.33
2023-01-15T15:59:01.567Z,23.10
2023-01-15T16:01:34.728Z,27.33
2023-01-15T16:04:26.610Z,24.70
2023-01-15T16:07:09.282Z,25.20
2023-01-15T16:10:05.574Z,30.83
2023-01-15T16:12:59.361Z,25.40
2023-01-15T16:15:42.613Z,28.67
2023-01-15T16:18:40.625Z,34.65
2023-01-15T16:21:45.544Z,32.15
2023-01-15T16:24:34.763Z,40.58
2023-01-15T16:27:27.097Z,35.83
2023-01-15T16:30:08.574Z,38.53
2023-01-15T16:32:57.915Z,28.85
2023-01-15T16:35:39.564Z,34.53
2023-01-15T16:38:26.622Z,32.47
2023-01-15T16:41:02.003Z,33.67
2023-01-15T16:44:03.639Z,34.53
2023-01-15T16:46:47.636Z,25.27
2023-01-15T16:49:44.562Z,33.28
2023-01-15T16:52:53.573Z,29.63
2023-01-15T16:55:47.747Z,31.70
2023-01-15T16:58:46.701Z,30.20
2023-01-15T17:01:48.721Z,47.35
2023-01-15T17:04:41.568Z,36.80
2023-01-15T17:07:41.569Z,35.22
2023-01-15T17:10:41.824Z,31.27
2023-01-15T17:13:44.615Z,35.75
2023-01-15T17:16:38.631Z,38.72
2023-01-15T17:19:26.731Z,48.85
2023-01-15T17:22:01.772Z,42.72
2023-01-15T17:25:00.675Z,35.97
2023-01-15T17:27:37.743Z,41.55
2023-01-15T17:30:24.627Z,34.33
2023-01-15T17:32:57.731Z,34.00
2023-01-15T17:35:47.646Z,39.05
2023-01-15T17:38:30.711Z,45.00
2023-01-15T17:41:28.619Z,43.70
2023-01-15T17:44:16.622Z,53.33
2023-01-15T17:46:49.747Z,53.25
2023-01-15T17:49:36.616Z,53.25
2023-01-15T17:52:16.049Z,54.70
2023-01-15T17:55:20.628Z,48.85
2023-01-15T17:58:18.624Z,43.38
2023-01-15T18:01:27.709Z,45.65
2023-01-15T18:04:19.229Z,33.35
2023-01-15T18:07:08.618Z,40.35
2023-01-15T18:09:50.715Z,37.65
2023-01-15T18:12:37.650Z,30.55
2023-01-15T18:15:18.665Z,37.83
2023-01-15T18:18:12.619Z,33.67
2023-01-15T18:21:06.664Z,33.75
2023-01-15T18:24:00.639Z,26.98
2023-01-15T18:26:54.638Z,38.75
2023-01-15T18:29:48.624Z,33.03
2023-01-15T18:32:42.640Z,34.10
2023-01-15T18:35:30.692Z,37.95
2023-01-15T18:38:04.724Z,35.58
2023-01-15T18:40:51.682Z,50.58
2023-01-15T18:44:00.297Z,52.55
2023-01-15T18:46:54.624Z,45.05
2023-01-15T18:49:41.650Z,48.17
2023-01-15T18:52:41.644Z,46.28
2023-01-15T18:55:32.665Z,54.20
2023-01-15T18:58:05.741Z,52.35
2023-01-15T19:00:52.708Z,52.22
2023-01-15T19:03:26.579Z,55.42
2023-01-15T19:06:16.617Z,62.28
2023-01-15T19:08:49.750Z,55.55
2023-01-15T19:11:39.397Z,44.63
2023-01-15T19:14:39.644Z,45.80
2023-01-15T19:17:54.675Z,41.25
2023-01-15T19:20:51.665Z,43.75
2023-01-15T19:23:38.657Z,36.35
2023-01-15T19:26:11.753Z,34.88
2023-01-15T19:28:58.679Z,30.55
2023-01-15T19:31:45.676Z,34.47
2023-01-15T19:34:40.686Z,35.53
2023-01-15T19:37:28.668Z,34.03
2023-01-15T19:40:08.681Z,34.28
2023-01-15T19:43:22.685Z,40.65
2023-01-15T19:46:35.720Z,34.17
2023-01-15T19:49:53.653Z,39.92
2023-01-15T19:52:44.697Z,31.42
2023-01-15T19:55:27.645Z,25.17
2023-01-15T19:58:24.704Z,20.13
2023-01-15T20:01:21.812Z,23.40
2023-01-15T20:04:09.648Z,23.67
2023-01-15T20:06:42.886Z,26.10
2023-01-15T20:09:33.749Z,26.02
2023-01-15T20:12:45.587Z,23.73
2023-01-15T20:15:33.692Z,21.38
2023-01-15T20:18:15.650Z,20.60
2023-01-15T20:21:10.679Z,19.65
2023-01-15T20:24:05.689Z,21.83
2023-01-15T20:26:59.702Z,21.42
2023-01-15T20:29:59.558Z,21.60
2023-01-15T20:32:56.680Z,20.35
2023-01-15T20:35:45.697Z,20.17
2023-01-15T20:38:26.683Z,22.45
2023-01-15T20:41:41.699Z,24.70
2023-01-15T20:44:47.690Z,21.27
2023-01-15T20:47:39.295Z,18.38
2023-01-15T20:50:26.688Z,20.00
2023-01-15T20:53:07.700Z,18.67
2023-01-15T20:56:01.736Z,18.77
2023-01-15T20:58:59.702Z,19.90
2023-01-15T21:01:55.159Z,20.23
2023-01-15T21:04:41.694Z,20.58
2023-01-15T21:07:14.792Z,21.73
2023-01-15T21:10:03.693Z,20.42
2023-01-15T21:12:36.770Z,22.50
2023-01-15T21:15:23.690Z,20.48
2023-01-15T21:18:03.707Z,20.92
2023-01-15T21:20:57.699Z,23.58
2023-01-15T21:23:44.675Z,24.08
2023-01-15T21:26:19.913Z,24.15
2023-01-15T21:29:06.693Z,23.15
2023-01-15T21:31:39.831Z,21.90
2023-01-15T21:34:26.776Z,22.05
2023-01-15T21:37:06.709Z,22.77
2023-01-15T21:40:01.707Z,24.77
2023-01-15T21:43:13.701Z,21.58
2023-01-15T21:46:15.736Z,24.02
2023-01-15T21:49:04.709Z,24.05
2023-01-15T21:51:37.797Z,23.73
2023-01-15T21:54:24.719Z,24.90
2023-01-15T21:56:57.860Z,24.95
2023-01-15T21:59:44.690Z,24.83
2023-01-15T22:02:28.736Z,24.25
2023-01-15T22:05:15.702Z,24.83
2023-01-15T22:07:55.694Z,23.17
2023-01-15T22:10:42.701Z,24.50
2023-01-15T22:13:21.582Z,25.65
2023-01-15T22:16:10.682Z,26.98
2023-01-15T22:18:51.700Z,24.73
2023-01-15T22:21:48.783Z,27.92
2023-01-15T22:24:44.691Z,25.88
2023-01-15T22:27:40.901Z,26.42
2023-01-15T22:30:34.728Z,26.83
2023-01-15T22:33:29.701Z,25.23
2023-01-15T22:36:20.693Z,24.40
2023-01-15T22:39:00.682Z,24.33
2023-01-15T22:42:12.739Z,21.30
2023-01-15T22:45:00.919Z,21.83
2023-01-15T22:47:45.741Z,22.63
2023-01-15T22:50:39.743Z,23.83
2023-01-15T22:53:26.709Z,20.67
2023-01-15T22:56:03.827Z,22.35
2023-01-15T22:58:50.686Z,20.83
2023-01-15T23:01:23.945Z,20.77
2023-01-15T23:04:10.756Z,20.63
2023-01-15T23:06:44.243Z,20.90
2023-01-15T23:09:32.767Z,20.92
2023-01-15T23:12:05.792Z,20.13
2023-01-15T23:14:52.739Z,24.08
2023-01-15T23:17:25.842Z,23.00
2023-01-15T23:20:14.692Z,27.48
2023-01-15T23:22:47.809Z,31.05
2023-01-15T23:25:34.699Z,27.65
2023-01-15T23:28:07.826Z,30.48
2023-01-15T23:30:54.768Z,31.60
2023-01-15T23:33:27.795Z,27.00
2023-01-15T23:36:16.726Z,29.77
2023-01-15T23:38:50.866Z,27.30
2023-01-15T23:41:55.754Z,28.17
2023-01-15T23:44:53.757Z,28.15
2023-01-15T23:47:47.746Z,29.95
2023-01-15T23:50:37.048Z,27.35
2023-01-15T23:53:09.840Z,29.98
2023-01-15T23:55:56.727Z,28.17
2023-01-15T23:58:36.726Z,26.35
